Time;durP1;ratioP1;P1;durP2;ratioP2;P2;SDS_P1;SDS_P2;PMS_P1;PMS_P2;Temp;Humidity;BMP_temperature;BMP_pressure;BME280_temperature;BME280_humidity;BME280_pressure;Samples;Min_cycle;Max_cycle;Signal;HPM_P1;HPM_P2
2022/09/29 00:00:08;;;;;;;4.83;3.20;;;;;;;8.41;71.95;97391.81;5132989;27;40935;-78
2022/09/29 00:02:36;;;;;;;4.50;3.47;;;;;;;8.34;71.68;97388.84;5133884;27;40047;-79
2022/09/29 00:05:04;;;;;;;3.13;2.83;;;;;;;8.27;71.95;97393.72;5116171;27;40885;-81
2022/09/29 00:07:32;;;;;;;4.00;3.33;;;;;;;8.22;72.11;97390.59;5116057;27;42620;-77
2022/09/29 00:09:59;;;;;;;4.73;3.10;;;;;;;8.15;72.00;97392.00;5115880;27;41204;-79
2022/09/29 00:12:27;;;;;;;3.20;2.90;;;;;;;8.09;71.94;97387.19;5116196;27;39808;-81
2022/09/29 00:14:57;;;;;;;3.40;2.90;;;;;;;7.91;72.04;97378.06;5132962;27;41757;-78
2022/09/29 00:17:25;;;;;;;4.37;3.27;;;;;;;8.01;71.91;97394.84;5116051;27;44772;-81
2022/09/29 00:19:53;;;;;;;4.40;3.03;;;;;;;7.96;72.32;97399.63;5133106;27;43213;-81
2022/09/29 00:22:21;;;;;;;3.87;2.93;;;;;;;7.93;72.03;97397.19;5115858;27;39955;-80
2022/09/29 00:24:49;;;;;;;3.87;3.17;;;;;;;7.89;72.37;97395.78;5132975;27;41801;-80
2022/09/29 00:27:17;;;;;;;5.90;3.00;;;;;;;7.82;72.75;97394.53;5133061;27;43514;-79
2022/09/29 00:29:44;;;;;;;3.13;2.80;;;;;;;7.84;72.61;97403.16;5115754;27;42254;-81
2022/09/29 00:32:14;;;;;;;3.60;3.00;;;;;;;7.80;72.47;97405.19;5116230;27;41965;-76
2022/09/29 00:34:41;;;;;;;4.10;2.60;;;;;;;7.77;72.60;97401.97;5115335;27;40876;-78
2022/09/29 00:37:09;;;;;;;5.10;3.40;;;;;;;7.72;72.92;97398.81;5115926;27;43304;-80
2022/09/29 00:39:36;;;;;;;3.27;2.97;;;;;;;7.71;73.09;97397.13;5115206;27;41233;-78
2022/09/29 00:42:04;;;;;;;3.83;2.87;;;;;;;7.62;73.07;97382.00;5134294;27;40947;-79
2022/09/29 00:45:04;;;;;;;3.97;3.43;;;;;;;7.66;73.18;97391.38;5131428;27;41640;-78
2022/09/29 00:47:38;;;;;;;4.03;3.00;;;;;;;7.62;72.76;97397.81;5115487;27;41791;-77
2022/09/29 00:50:11;;;;;;;3.87;3.03;;;;;;;7.60;72.92;97394.44;5132451;27;42393;-78
2022/09/29 00:52:42;;;;;;;3.37;3.07;;;;;;;7.57;73.28;97392.88;5132683;27;39999;-80
2022/09/29 00:55:16;;;;;;;3.70;2.83;;;;;;;7.40;72.89;97357.28;5115336;27;40566;-77
2022/09/29 00:57:48;;;;;;;3.03;2.40;;;;;;;7.45;72.84;97370.91;5115946;27;42823;-80
2022/09/29 01:00:17;;;;;;;5.23;2.80;;;;;;;7.44;73.10;97371.88;5109550;27;40818;-80
2022/09/29 01:02:49;;;;;;;4.17;2.90;;;;;;;7.51;73.37;97391.56;5132399;27;41741;-78
2022/09/29 01:05:22;;;;;;;4.00;3.07;;;;;;;7.47;73.21;97390.09;5131230;27;40896;-80
2022/09/29 01:07:50;;;;;;;4.20;3.53;;;;;;;7.50;73.37;97397.78;5128318;27;43589;-79
2022/09/29 01:10:19;;;;;;;5.57;3.30;;;;;;;7.51;72.96;97396.81;5114546;27;40943;-79
2022/09/29 01:12:48;;;;;;;3.43;3.00;;;;;;;7.42;73.15;97376.41;5115297;27;40097;-81
2022/09/29 01:15:18;;;;;;;5.27;2.80;;;;;;;7.58;73.24;97390.13;5132163;27;41668;-79
2022/09/29 01:17:48;;;;;;;4.43;3.07;;;;;;;7.63;73.02;97400.34;5133483;27;43478;-80
2022/09/29 01:20:19;;;;;;;4.20;3.30;;;;;;;7.60;73.17;97376.00;5114834;27;41098;-77
2022/09/29 01:23:15;;;;;;;4.60;2.80;;;;;;;7.74;72.71;97396.91;5129410;27;40763;-78
2022/09/29 01:26:15;;;;;;;3.63;2.80;;;;;;;7.80;72.86;97393.81;5130236;27;42498;-79
2022/09/29 01:29:17;;;;;;;2.77;2.40;;;;;;;7.85;73.01;97392.53;5067623;27;43197;-79
2022/09/29 01:31:56;;;;;;;2.70;2.47;;;;;;;7.90;72.51;97397.47;5115369;27;42179;-80
2022/09/29 01:34:35;;;;;;;3.17;2.70;;;;;;;7.94;72.35;97394.47;5114664;27;39116;-78
2022/09/29 01:37:17;;;;;;;3.47;2.70;;;;;;;7.97;72.21;97401.31;5132175;27;40303;-77
2022/09/29 01:39:53;;;;;;;3.07;2.70;;;;;;;8.01;72.34;97394.84;5114665;27;41267;-78
2022/09/29 01:42:26;;;;;;;3.43;2.60;;;;;;;8.03;72.45;97398.22;5132282;27;43942;-80
2022/09/29 01:44:59;;;;;;;3.37;3.07;;;;;;;8.04;72.75;97388.47;5131372;27;40088;-80
2022/09/29 01:47:35;;;;;;;4.07;3.10;;;;;;;8.08;72.77;97396.06;5115045;27;42048;-79
2022/09/29 01:50:06;;;;;;;3.70;2.53;;;;;;;8.09;72.30;97392.47;5131628;27;42565;-78
2022/09/29 01:52:42;;;;;;;3.50;2.90;;;;;;;8.01;72.12;97371.13;5114691;27;42399;-78
2022/09/29 01:55:13;;;;;;;4.07;2.77;;;;;;;7.96;72.10;97365.34;5131449;27;40938;-77
2022/09/29 01:57:46;;;;;;;4.37;2.90;;;;;;;8.15;72.33;97397.28;5132568;27;42080;-78
2022/09/29 02:00:17;;;;;;;4.10;2.50;;;;;;;8.17;72.17;97405.91;5135136;27;41575;-80
2022/09/29 02:02:50;;;;;;;3.67;2.60;;;;;;;8.19;72.18;97404.00;5118573;27;41229;-80
2022/09/29 02:05:22;;;;;;;3.07;2.67;;;;;;;8.08;71.92;97379.41;5135296;27;41017;-80
2022/09/29 02:07:51;;;;;;;2.97;2.47;;;;;;;8.16;72.07;97387.59;5132055;27;42458;-78
2022/09/29 02:10:24;;;;;;;2.83;2.40;;;;;;;8.24;72.33;97406.28;5136451;27;42680;-81
2022/09/29 02:12:55;;;;;;;3.43;2.20;;;;;;;8.28;72.35;97399.84;5135261;27;41192;-79
2022/09/29 02:15:26;;;;;;;2.53;2.33;;;;;;;8.27;72.19;97401.63;5135250;27;40995;-81
2022/09/29 02:17:59;;;;;;;4.37;2.67;;;;;;;8.28;72.25;97398.00;5117903;27;40559;-80
2022/09/29 02:20:27;;;;;;;2.63;2.40;;;;;;;8.35;72.46;97408.13;5135904;27;42678;-77
2022/09/29 02:22:56;;;;;;;2.67;2.10;;;;;;;8.33;72.18;97397.69;5117901;27;42335;-77
2022/09/29 02:25:24;;;;;;;2.43;2.23;;;;;;;8.37;72.63;97404.44;5117673;27;38258;-82
2022/09/29 02:27:52;;;;;;;2.00;1.90;;;;;;;8.38;72.62;97410.53;5117935;27;40768;-78
2022/09/29 02:30:20;;;;;;;2.60;2.40;;;;;;;8.37;72.64;97416.78;5134338;27;41918;-78
2022/09/29 02:32:48;;;;;;;2.70;2.47;;;;;;;8.36;73.03;97404.53;5135001;27;41615;-81
2022/09/29 02:35:17;;;;;;;2.80;2.60;;;;;;;8.23;72.83;97389.63;5134626;27;40903;-78
2022/09/29 02:37:56;;;;;;;3.60;2.63;;;;;;;8.28;73.30;97395.38;5117640;27;40852;-79
2022/09/29 02:40:44;;;;;;;3.20;2.70;;;;;;;8.32;73.46;97408.34;5134499;27;43823;-80
2022/09/29 02:43:24;;;;;;;3.50;2.70;;;;;;;8.29;73.28;97407.59;5132517;27;42274;-77
2022/09/29 02:46:08;;;;;;;2.93;2.73;;;;;;;8.29;73.28;97406.75;5131590;27;40967;-80
2022/09/29 02:48:56;;;;;;;2.70;2.50;;;;;;;8.27;73.36;97404.28;5117095;27;42825;-78
2022/09/29 02:51:31;;;;;;;3.20;2.23;;;;;;;8.28;73.29;97419.09;5134454;27;43160;-78
2022/09/29 02:54:13;;;;;;;3.33;2.80;;;;;;;8.26;73.22;97405.22;5117363;27;41772;-79
2022/09/29 02:56:49;;;;;;;3.00;2.50;;;;;;;8.29;73.46;97409.41;5117036;27;40107;-80
2022/09/29 02:59:20;;;;;;;2.43;2.23;;;;;;;8.15;73.22;97389.38;5134291;27;41679;-78
2022/09/29 03:01:50;;;;;;;3.10;2.80;;;;;;;8.15;73.39;97386.75;5131159;27;42787;-79
2022/09/29 03:04:19;;;;;;;3.30;2.10;;;;;;;8.28;73.35;97408.56;5134288;27;43273;-78
2022/09/29 03:06:48;;;;;;;2.50;2.30;;;;;;;8.26;73.33;97410.50;5134080;27;39964;-76
2022/09/29 03:09:16;;;;;;;3.13;2.43;;;;;;;8.25;73.35;97408.81;5116245;27;42016;-77
2022/09/29 03:11:44;;;;;;;3.17;2.47;;;;;;;8.23;73.47;97410.72;5116823;27;43474;-78
2022/09/29 03:14:12;;;;;;;2.57;2.37;;;;;;;8.22;73.60;97405.56;5134449;27;43198;-78
2022/09/29 03:16:39;;;;;;;2.70;2.33;;;;;;;8.18;73.49;97402.31;5116930;27;38925;-77
2022/09/29 03:19:07;;;;;;;4.60;2.60;;;;;;;8.19;73.49;97401.34;5116998;27;41626;-78
2022/09/29 03:21:35;;;;;;;2.43;2.23;;;;;;;8.17;73.32;97399.78;5116838;27;41757;-81
2022/09/29 03:24:04;;;;;;;2.30;2.10;;;;;;;8.17;73.39;97403.25;5134306;27;41122;-80
2022/09/29 03:26:32;;;;;;;3.63;2.80;;;;;;;8.16;73.91;97404.22;5116901;27;40317;-78
2022/09/29 03:29:00;;;;;;;2.77;2.57;;;;;;;8.07;74.00;97389.09;5116685;27;41730;-81
2022/09/29 03:31:28;;;;;;;2.43;2.23;;;;;;;8.16;73.67;97401.56;5116754;27;41462;-79
2022/09/29 03:33:56;;;;;;;2.60;2.40;;;;;;;8.13;73.78;97393.91;5116401;27;41184;-78
2022/09/29 03:36:23;;;;;;;3.13;2.50;;;;;;;8.23;73.87;97405.44;5133886;27;40185;-77
2022/09/29 03:38:51;;;;;;;5.03;2.80;;;;;;;8.26;73.60;97410.50;5133900;27;41881;-80
2022/09/29 03:41:20;;;;;;;2.47;2.27;;;;;;;8.08;73.45;97374.97;5134932;27;42936;-79
2022/09/29 03:43:48;;;;;;;2.90;2.67;;;;;;;8.31;73.77;97410.13;5133791;27;41108;-78
2022/09/29 03:46:15;;;;;;;2.97;2.73;;;;;;;8.35;73.91;97418.69;5116462;27;38774;-78
2022/09/29 03:48:43;;;;;;;2.80;2.60;;;;;;;8.35;73.67;97414.25;5116572;27;40808;-80
2022/09/29 03:51:11;;;;;;;2.67;2.27;;;;;;;8.29;73.58;97398.84;5133609;27;41706;-78
2022/09/29 03:53:39;;;;;;;3.37;2.70;;;;;;;8.35;73.87;97416.03;5134675;27;42219;-79
2022/09/29 03:56:07;;;;;;;2.77;2.50;;;;;;;8.33;73.97;97410.03;5115797;27;39556;-80
2022/09/29 03:58:35;;;;;;;2.70;2.47;;;;;;;8.36;73.54;97425.66;5116021;27;40212;-79
2022/09/29 04:01:03;;;;;;;2.43;2.23;;;;;;;8.36;73.82;97421.22;5133297;27;41987;-77
2022/09/29 04:03:31;;;;;;;3.77;2.50;;;;;;;8.38;73.58;97418.47;5115919;27;43256;-79
2022/09/29 04:05:59;;;;;;;3.50;3.10;;;;;;;8.37;73.38;97417.63;5133874;27;38956;-81
2022/09/29 04:08:27;;;;;;;3.27;2.87;;;;;;;8.38;73.33;97418.47;5132960;27;40733;-78
2022/09/29 04:10:54;;;;;;;3.77;2.90;;;;;;;8.37;73.82;97416.78;5133398;27;42815;-80
2022/09/29 04:13:22;;;;;;;3.47;2.60;;;;;;;8.29;73.77;97410.25;5133281;27;43264;-78
2022/09/29 04:15:51;;;;;;;4.17;3.00;;;;;;;8.39;73.37;97425.41;5115860;27;39019;-78
2022/09/29 04:18:19;;;;;;;3.40;3.10;;;;;;;8.39;74.15;97420.13;5115821;27;40800;-81
2022/09/29 04:20:47;;;;;;;3.40;3.10;;;;;;;8.40;73.55;97419.19;5133252;27;43458;-77
2022/09/29 04:23:15;;;;;;;5.33;3.00;;;;;;;8.40;73.75;97421.81;5115566;27;41253;-80
2022/09/29 04:25:45;;;;;;;5.67;3.63;;;;;;;8.38;73.73;97408.75;5133207;27;39372;-77
2022/09/29 04:28:13;;;;;;;3.93;3.03;;;;;;;8.05;73.66;97364.66;5133085;27;40696;-78
2022/09/29 04:30:40;;;;;;;3.87;3.33;;;;;;;8.38;73.56;97418.47;5133095;27;41451;-80
2022/09/29 04:33:10;;;;;;;2.67;2.40;;;;;;;8.38;73.58;97423.72;5132991;27;42270;-78
2022/09/29 04:35:38;;;;;;;5.07;3.13;;;;;;;8.26;73.55;97399.94;5132802;27;39624;-79
2022/09/29 04:38:07;;;;;;;3.87;3.43;;;;;;;8.25;73.85;97400.91;5133319;27;42545;-78
2022/09/29 04:40:34;;;;;;;3.40;3.10;;;;;;;8.24;73.73;97399.22;5132496;27;43016;-77
2022/09/29 04:43:03;;;;;;;3.57;2.73;;;;;;;8.38;73.88;97429.00;5132848;27;42646;-77
2022/09/29 04:45:31;;;;;;;3.13;2.83;;;;;;;8.38;73.81;97423.72;5115281;27;40221;-77
2022/09/29 04:47:59;;;;;;;3.80;3.43;;;;;;;8.37;73.83;97419.41;5132677;27;41759;-80
2022/09/29 04:50:28;;;;;;;3.70;2.93;;;;;;;8.38;73.76;97423.72;5132447;27;43492;-80
2022/09/29 04:52:56;;;;;;;3.70;2.70;;;;;;;8.37;73.85;97422.06;5134111;27;42076;-78
2022/09/29 04:55:24;;;;;;;3.03;2.53;;;;;;;8.37;73.65;97427.31;5137480;27;38758;-80
2022/09/29 04:57:52;;;;;;;3.27;2.97;;;;;;;8.35;73.76;97418.69;5138771;27;40907;-77
2022/09/29 05:00:20;;;;;;;2.90;2.60;;;;;;;8.34;73.86;97423.13;5138315;27;41971;-79
2022/09/29 05:02:48;;;;;;;4.10;2.70;;;;;;;8.34;73.44;97425.75;5138733;27;42724;-77
2022/09/29 05:05:16;;;;;;;3.33;3.03;;;;;;;8.30;73.46;97417.19;5133815;27;39858;-81
2022/09/29 05:07:45;;;;;;;3.30;3.00;;;;;;;8.27;73.91;97420.09;5132576;27;40773;-78
2022/09/29 05:10:13;;;;;;;5.50;3.83;;;;;;;8.22;74.06;97414.31;5115243;27;41793;-77
2022/09/29 05:12:41;;;;;;;3.93;3.43;;;;;;;8.03;73.86;97385.03;5115253;27;42574;-83
2022/09/29 05:15:09;;;;;;;4.73;3.60;;;;;;;8.12;74.23;97412.50;5132283;27;41002;-82
2022/09/29 05:17:37;;;;;;;3.13;2.87;;;;;;;8.06;74.19;97421.69;5115523;27;40702;-79
2022/09/29 05:20:06;;;;;;;4.57;2.97;;;;;;;8.01;74.04;97425.66;5132209;27;43271;-78
2022/09/29 05:22:34;;;;;;;3.33;2.80;;;;;;;7.95;74.14;97432.19;5132187;27;43176;-79
2022/09/29 05:25:03;;;;;;;3.13;2.83;;;;;;;7.89;74.30;97432.69;5115615;27;40019;-80
2022/09/29 05:27:31;;;;;;;3.77;2.93;;;;;;;7.73;74.29;97411.88;5115109;27;41465;-78
2022/09/29 05:29:58;;;;;;;5.00;3.33;;;;;;;7.80;74.19;97428.06;5131957;27;43775;-80
2022/09/29 05:32:26;;;;;;;4.00;3.57;;;;;;;7.68;74.59;97413.16;5137130;27;42095;-80
2022/09/29 05:34:54;;;;;;;3.10;2.63;;;;;;;7.65;74.71;97414.25;5119028;27;40169;-80
2022/09/29 05:37:22;;;;;;;3.67;2.73;;;;;;;7.72;74.40;97435.69;5118635;27;41593;-80
2022/09/29 05:39:49;;;;;;;4.40;3.13;;;;;;;7.60;74.49;97420.78;5118526;27;44669;-83
2022/09/29 05:42:19;;;;;;;3.90;3.33;;;;;;;7.70;74.88;97438.44;5119130;27;42311;-79
2022/09/29 05:44:47;;;;;;;3.47;2.83;;;;;;;7.71;74.87;97441.91;5118770;27;39265;-81
2022/09/29 05:47:14;;;;;;;3.83;3.07;;;;;;;7.58;74.69;97411.22;5118960;27;40556;-79
2022/09/29 05:49:42;;;;;;;3.90;2.97;;;;;;;7.58;74.71;97413.84;5118363;27;43969;-78
2022/09/29 05:52:10;;;;;;;3.43;2.70;;;;;;;7.74;74.47;97444.34;5136018;27;41214;-81
2022/09/29 05:54:38;;;;;;;4.67;3.00;;;;;;;7.78;74.71;97448.44;5118843;27;38637;-79
2022/09/29 05:57:05;;;;;;;4.30;3.10;;;;;;;7.85;74.95;97441.75;5118288;27;40635;-80
2022/09/29 05:59:35;;;;;;;3.70;3.30;;;;;;;7.92;75.12;97443.81;5118092;27;41972;-82
2022/09/29 06:02:03;;;;;;;3.93;3.43;;;;;;;7.61;74.96;97385.59;5118371;27;42168;-79
2022/09/29 06:04:30;;;;;;;4.70;3.40;;;;;;;7.98;74.82;97437.25;5135506;27;40668;-82
2022/09/29 06:06:58;;;;;;;4.40;2.90;;;;;;;8.17;74.41;97452.50;5118592;27;40767;-81
2022/09/29 06:09:25;;;;;;;3.00;2.67;;;;;;;8.30;74.45;97454.13;5135414;27;42702;-82
2022/09/29 06:11:53;;;;;;;4.83;3.47;;;;;;;8.44;74.35;97452.25;5118227;27;41416;-79
2022/09/29 06:14:21;;;;;;;3.83;3.20;;;;;;;8.57;74.14;97453.84;5135803;27;40924;-80
2022/09/29 06:16:50;;;;;;;3.33;2.90;;;;;;;8.66;74.01;97444.38;5118311;27;40721;-81
2022/09/29 06:19:18;;;;;;;4.13;3.43;;;;;;;8.76;73.93;97434.81;5118498;27;41447;-80
2022/09/29 06:21:45;;;;;;;4.47;4.07;;;;;;;8.98;74.11;97455.94;5118394;27;41304;-83
2022/09/29 06:24:13;;;;;;;4.90;3.83;;;;;;;9.02;74.13;97441.50;5135320;27;40118;-81
2022/09/29 06:26:41;;;;;;;5.13;3.90;;;;;;;9.19;73.98;97457.84;5135043;27;40936;-80
2022/09/29 06:29:09;;;;;;;4.23;3.83;;;;;;;9.30;73.86;97449.88;5135468;27;42876;-81
2022/09/29 06:31:37;;;;;;;6.17;4.67;;;;;;;9.39;74.16;97433.31;5135151;27;41570;-83
2022/09/29 06:34:07;;;;;;;5.60;4.03;;;;;;;9.77;73.58;97459.25;5135137;27;39986;-80
2022/09/29 06:39:24;;;;;;;5.37;4.37;;;;;;;10.35;73.88;97434.19;5118267;27;41715;-83
2022/09/29 06:41:53;;;;;;;5.10;4.53;;;;;;;10.84;73.42;97452.97;5117784;27;42614;-83
2022/09/29 06:44:23;;;;;;;7.47;4.50;;;;;;;11.22;73.31;97439.06;5117738;27;38797;-83
2022/09/29 06:46:51;;;;;;;6.67;4.60;;;;;;;11.68;71.93;97465.84;5135929;27;41796;-82
2022/09/29 06:49:21;;;;;;;7.83;4.43;;;;;;;12.00;71.04;97467.44;5134588;27;42786;-80
2022/09/29 06:51:49;;;;;;;5.77;4.63;;;;;;;12.26;70.62;97473.88;5117713;27;41526;-85
2022/09/29 06:54:20;;;;;;;5.97;4.77;;;;;;;12.41;69.99;97483.09;5117648;27;39895;-81
2022/09/29 06:56:49;;;;;;;6.00;4.73;;;;;;;12.57;69.76;97480.72;5134310;27;40441;-83
2022/09/29 06:59:17;;;;;;;8.27;5.00;;;;;;;12.67;69.43;97487.81;5134557;27;42791;-82
2022/09/29 07:01:49;;;;;;;6.80;4.80;;;;;;;12.65;69.20;97495.91;5134844;27;42314;-83
2022/09/29 07:04:17;;;;;;;6.77;4.50;;;;;;;12.62;68.99;97500.66;5134773;27;40954;-83
2022/09/29 07:06:47;;;;;;;6.53;4.80;;;;;;;12.57;69.21;97509.91;5134625;27;42763;-83
2022/09/29 07:09:15;;;;;;;5.37;4.87;;;;;;;12.52;69.03;97506.84;5117018;27;45121;-83
2022/09/29 07:11:45;;;;;;;10.13;5.30;;;;;;;12.44;69.34;97497.91;5134325;27;43719;-81
2022/09/29 07:14:13;;;;;;;5.80;4.87;;;;;;;12.46;69.13;97506.56;5134804;27;40059;-83
2022/09/29 07:16:41;;;;;;;8.20;5.03;;;;;;;12.43;69.25;97507.69;5135328;27;42667;-83
2022/09/29 07:19:10;;;;;;;7.73;5.73;;;;;;;12.39;69.64;97506.28;5117158;27;42128;-81
2022/09/29 07:21:37;;;;;;;8.90;5.80;;;;;;;12.34;69.26;97511.19;5117336;27;41920;-83
2022/09/29 07:24:08;;;;;;;7.87;6.03;;;;;;;12.35;69.29;97507.56;5134137;27;39106;-80
2022/09/29 07:26:36;;;;;;;6.67;6.00;;;;;;;12.40;69.56;97507.13;5117302;27;40777;-85
2022/09/29 07:29:04;;;;;;;8.17;6.73;;;;;;;12.50;69.10;97508.78;5116948;27;42060;-83
2022/09/29 07:31:32;;;;;;;9.30;6.50;;;;;;;12.67;69.06;97514.38;5134130;27;41947;-80
2022/09/29 07:34:00;;;;;;;8.17;6.47;;;;;;;12.86;68.57;97503.69;5134471;27;39973;-83
2022/09/29 07:36:28;;;;;;;9.47;6.97;;;;;;;13.17;67.68;97523.81;5116883;27;41036;-80
2022/09/29 07:38:55;;;;;;;8.20;6.47;;;;;;;13.39;67.59;97524.44;5133969;27;42697;-83
2022/09/29 07:41:26;;;;;;;9.87;6.47;;;;;;;13.66;67.18;97524.47;5134104;27;42099;-81
2022/09/29 07:43:54;;;;;;;8.60;6.27;;;;;;;13.80;66.50;97529.28;5116810;27;40066;-83
2022/09/29 07:46:22;;;;;;;7.70;6.90;;;;;;;13.89;66.14;97536.38;5133902;27;41856;-82
2022/09/29 07:48:50;;;;;;;8.43;7.40;;;;;;;13.98;65.55;97535.47;5134649;27;43022;-80
2022/09/29 07:51:20;;;;;;;8.30;6.50;;;;;;;14.08;65.02;97540.75;5116647;27;42514;-84
2022/09/29 07:53:48;;;;;;;8.17;6.80;;;;;;;14.16;64.62;97540.00;5116078;27;39244;-80
2022/09/29 07:56:17;;;;;;;10.53;7.20;;;;;;;14.21;64.65;97535.06;5133635;27;43247;-80
2022/09/29 07:58:48;;;;;;;10.40;6.57;;;;;;;14.21;64.05;97540.41;5134374;27;42777;-82
2022/09/29 08:01:17;;;;;;;9.73;7.13;;;;;;;14.14;63.16;97549.97;5130660;27;42308;-81
2022/09/29 08:03:50;;;;;;;7.80;6.13;;;;;;;13.99;63.81;97550.47;5133302;27;39371;-80
2022/09/29 08:06:18;;;;;;;8.30;5.80;;;;;;;13.85;64.11;97550.94;5116317;27;40607;-83
2022/09/29 08:08:46;;;;;;;11.50;7.50;;;;;;;13.78;64.46;97549.88;5133416;27;43975;-81
2022/09/29 08:11:16;;;;;;;7.47;6.20;;;;;;;13.76;64.99;97551.84;5116418;27;41284;-80
2022/09/29 08:13:44;;;;;;;6.63;6.00;;;;;;;13.83;64.95;97552.09;5134547;27;40187;-80
2022/09/29 08:16:14;;;;;;;10.57;6.80;;;;;;;13.82;64.76;97535.31;5134514;27;42608;-82
2022/09/29 08:18:43;;;;;;;8.27;6.60;;;;;;;13.90;64.13;97540.72;5134534;27;43581;-80
2022/09/29 08:21:13;;;;;;;9.03;6.57;;;;;;;14.19;64.02;97558.34;5134574;27;42330;-82
2022/09/29 08:23:42;;;;;;;7.53;6.83;;;;;;;14.44;63.41;97567.47;5115952;27;39236;-82
2022/09/29 08:26:13;;;;;;;7.13;5.83;;;;;;;14.47;62.37;97548.47;5116234;27;40711;-83
2022/09/29 08:28:41;;;;;;;7.30;6.60;;;;;;;14.79;61.78;97566.59;5115775;27;41823;-82
2022/09/29 08:31:11;;;;;;;6.77;6.03;;;;;;;14.79;61.39;97567.44;5132918;27;43243;-80
2022/09/29 08:33:40;;;;;;;7.80;6.13;;;;;;;14.89;60.79;97572.69;5115767;27;39804;-82
2022/09/29 08:36:13;;;;;;;6.63;5.93;;;;;;;15.05;60.11;97571.00;5134370;27;42754;-81
2022/09/29 08:38:43;;;;;;;7.33;6.17;;;;;;;15.39;59.87;97565.72;5133104;27;41755;-82
2022/09/29 08:41:27;;;;;;;7.93;6.33;;;;;;;15.99;58.79;97572.88;5133367;27;41261;-82
2022/09/29 08:43:59;;;;;;;6.77;5.23;;;;;;;17.43;56.38;97600.00;5133013;27;40069;-84
2022/09/29 08:46:31;;;;;;;8.63;5.37;;;;;;;19.18;52.72;97614.81;5129945;27;41594;-85
2022/09/29 08:49:07;;;;;;;7.33;5.50;;;;;;;20.04;48.42;97624.25;5115699;27;43230;-84
2022/09/29 08:51:39;;;;;;;7.37;6.00;;;;;;;19.90;46.95;97630.47;5130041;27;42275;-80
2022/09/29 08:54:15;;;;;;;8.17;6.23;;;;;;;20.11;47.88;97625.19;5132290;27;39882;-82
2022/09/29 08:56:43;;;;;;;7.50;5.43;;;;;;;20.18;47.12;97634.16;5132234;27;42357;-81
2022/09/29 08:59:11;;;;;;;4.90;4.40;;;;;;;20.28;47.97;97629.31;5133973;27;42741;-82
2022/09/29 09:01:54;;;;;;;6.37;5.20;;;;;;;20.43;47.28;97605.97;5115387;27;41245;-82
2022/09/29 09:05:09;;;;;;;7.33;4.97;;;;;;;20.94;47.17;97629.31;5133247;27;38179;-86
2022/09/29 09:07:50;;;;;;;6.17;5.00;;;;;;;21.19;45.88;97614.47;5057661;28;40731;-86
2022/09/29 09:10:29;;;;;;;9.43;5.13;;;;;;;21.29;45.07;97623.06;5057620;28;42027;-85
2022/09/29 09:13:12;;;;;;;5.73;4.37;;;;;;;21.75;45.59;97611.84;5091942;27;41317;-88
2022/09/29 09:16:01;;;;;;;6.23;5.23;;;;;;;21.99;45.39;97619.50;5115880;27;40285;-86
2022/09/29 09:18:51;;;;;;;7.80;4.73;;;;;;;21.63;44.95;97627.72;5115568;27;42093;-88
2022/09/29 09:21:25;;;;;;;4.87;4.47;;;;;;;21.20;45.43;97626.09;5115532;27;42350;-87
2022/09/29 09:24:07;;;;;;;5.90;4.93;;;;;;;20.60;46.25;97613.84;5115314;27;42006;-84
2022/09/29 09:26:40;;;;;;;5.67;4.50;;;;;;;19.90;46.21;97568.66;5115086;27;40019;-81
2022/09/29 09:29:14;;;;;;;4.63;4.23;;;;;;;19.77;47.13;97606.09;5115699;27;42416;-80
2022/09/29 09:31:44;;;;;;;4.97;4.03;;;;;;;19.48;48.37;97613.03;5132723;27;41289;-82
2022/09/29 09:34:17;;;;;;;5.37;4.70;;;;;;;19.28;48.47;97611.91;5115881;27;42394;-88
2022/09/29 09:36:48;;;;;;;6.83;4.50;;;;;;;19.04;49.40;97609.41;5131208;27;39888;-84
2022/09/29 09:39:23;;;;;;;4.80;4.37;;;;;;;18.79;49.77;97606.06;5130382;27;41578;-83
2022/09/29 09:41:55;;;;;;;6.80;3.80;;;;;;;18.63;50.37;97601.63;5114916;27;41512;-84
2022/09/29 09:44:26;;;;;;;3.90;3.60;;;;;;;18.52;50.38;97608.22;5130406;27;42236;-83
2022/09/29 09:46:57;;;;;;;4.63;3.70;;;;;;;18.41;50.31;97594.38;5132324;27;38975;-85
2022/09/29 09:49:30;;;;;;;5.67;3.90;;;;;;;18.38;51.11;97586.66;5132688;27;40661;-82
2022/09/29 09:52:03;;;;;;;4.37;4.03;;;;;;;18.14;50.83;97547.44;5114759;27;41490;-84
2022/09/29 09:54:36;;;;;;;5.93;4.50;;;;;;;18.48;50.24;97587.28;5130127;27;42198;-83
2022/09/29 09:57:29;;;;;;;6.10;4.00;;;;;;;18.61;50.48;97580.34;5132585;27;40028;-83
2022/09/29 10:00:07;;;;;;;6.00;4.53;;;;;;;19.01;48.92;97608.75;5132313;27;41081;-83
2022/09/29 10:02:45;;;;;;;6.13;4.57;;;;;;;19.19;48.94;97607.59;5131629;27;42111;-88
2022/09/29 10:05:15;;;;;;;5.00;4.50;;;;;;;19.32;48.28;97608.66;5129138;27;42889;-82
2022/09/29 10:07:44;;;;;;;5.67;3.80;;;;;;;19.70;47.87;97605.97;5132140;27;39332;-85
2022/09/29 10:10:20;;;;;;;7.43;3.87;;;;;;;20.39;46.48;97618.16;5114864;27;41168;-86
2022/09/29 10:13:05;;;;;;;4.80;3.83;;;;;;;20.97;44.48;97635.16;5131024;27;42826;-84
2022/09/29 10:15:38;;;;;;;6.10;3.50;;;;;;;20.73;44.77;97613.97;5114788;27;42442;-86
2022/09/29 10:18:12;;;;;;;5.43;4.00;;;;;;;21.41;43.66;97634.13;5117476;27;40743;-81
2022/09/29 10:20:41;;;;;;;6.90;3.97;;;;;;;22.19;43.31;97636.63;5132710;27;41880;-83
2022/09/29 10:23:28;;;;;;;3.23;2.93;;;;;;;23.09;41.57;97649.03;5119070;27;44818;-82
2022/09/29 10:26:15;;;;;;;3.60;2.70;;;;;;;23.93;39.57;97662.84;5132490;27;43010;-86
2022/09/29 10:28:50;;;;;;;6.00;3.10;;;;;;;24.16;39.12;97658.84;5135804;27;38750;-84
2022/09/29 10:31:22;;;;;;;3.87;2.70;;;;;;;24.08;38.06;97670.75;5132012;27;42506;-87
2022/09/29 10:33:54;;;;;;;5.00;3.07;;;;;;;24.38;37.78;97668.41;5132234;27;42689;-86
2022/09/29 10:36:23;;;;;;;5.30;3.37;;;;;;;24.47;35.58;97648.22;5117846;27;41940;-85
2022/09/29 10:38:53;;;;;;;5.73;2.87;;;;;;;24.70;36.80;97678.31;5118642;27;39091;-86
2022/09/29 10:41:24;;;;;;;4.90;2.90;;;;;;;24.79;35.89;97680.78;5117718;27;40277;-85
2022/09/29 10:43:52;;;;;;;4.93;3.20;;;;;;;25.56;34.47;97693.31;5132194;27;42664;-85
2022/09/29 10:46:46;;;;;;;3.40;3.10;;;;;;;27.25;32.60;97692.88;5134984;27;41216;-86
2022/09/29 10:49:17;;;;;;;3.77;2.97;;;;;;;27.34;31.19;97710.53;5117780;27;42474;-85
2022/09/29 10:51:54;;;;;;;4.83;3.10;;;;;;;27.12;31.84;97693.88;5117380;27;41844;-85
2022/09/29 10:54:25;;;;;;;3.03;2.70;;;;;;;27.37;32.69;97683.72;5134788;27;41790;-85
2022/09/29 10:56:57;;;;;;;3.83;2.70;;;;;;;28.10;32.07;97697.00;5117024;27;42321;-84
2022/09/29 10:59:25;;;;;;;94.10;15.93;;;;;;;28.51;30.08;97708.88;5118290;27;40137;-84
2022/09/29 11:01:56;;;;;;;6.30;3.67;;;;;;;28.89;31.25;97690.13;5135855;27;41545;-84
2022/09/29 11:04:28;;;;;;;4.60;2.53;;;;;;;29.55;29.93;97687.91;5132802;27;42438;-83
2022/09/29 11:06:57;;;;;;;3.20;2.20;;;;;;;28.34;30.52;97706.03;5116972;27;40945;-84
2022/09/29 11:09:35;;;;;;;4.67;2.60;;;;;;;27.07;31.58;97696.47;5134905;27;41635;-85
2022/09/29 11:12:04;;;;;;;2.50;1.93;;;;;;;25.84;33.31;97691.00;5134584;27;40713;-86
2022/09/29 11:14:40;;;;;;;3.77;2.10;;;;;;;24.77;35.23;97658.47;5117590;27;41867;-83
2022/09/29 11:17:22;;;;;;;4.57;1.90;;;;;;;24.09;37.23;97664.28;5134649;27;42265;-82
2022/09/29 11:19:50;;;;;;;3.63;2.23;;;;;;;23.48;38.53;97647.44;5117753;27;40119;-82
2022/09/29 11:22:42;;;;;;;5.90;2.43;;;;;;;22.88;38.27;97650.00;5134685;27;43155;-84
2022/09/29 11:25:39;;;;;;;3.30;2.23;;;;;;;22.47;40.40;97652.75;5100111;27;41774;-84
2022/09/29 11:28:26;;;;;;;5.27;2.40;;;;;;;22.04;40.72;97649.38;5134036;27;43217;-85
2022/09/29 11:31:08;;;;;;;3.13;2.37;;;;;;;21.57;42.05;97628.47;5133962;27;40324;-84
2022/09/29 11:33:50;;;;;;;3.93;2.43;;;;;;;21.27;41.57;97637.72;5133987;27;42154;-82
2022/09/29 11:36:25;;;;;;;3.27;1.90;;;;;;;21.08;42.30;97648.09;5134254;27;42970;-86
2022/09/29 11:39:21;;;;;;;3.97;2.07;;;;;;;20.85;43.30;97642.06;5117365;27;41182;-85
2022/09/29 11:41:58;;;;;;;2.40;1.90;;;;;;;20.59;44.61;97618.38;5116758;27;39096;-82
2022/09/29 11:44:53;;;;;;;3.77;2.10;;;;;;;20.57;43.92;97635.72;5117099;27;42188;-82
2022/09/29 11:47:36;;;;;;;3.07;2.30;;;;;;;20.58;44.45;97637.38;5116862;27;42058;-82
2022/09/29 11:50:21;;;;;;;3.13;2.57;;;;;;;20.80;44.77;97641.78;5120530;27;41188;-81
2022/09/29 11:53:07;;;;;;;2.50;2.03;;;;;;;21.43;43.82;97626.69;5124459;27;40065;-83
2022/09/29 11:55:50;;;;;;;4.53;2.63;;;;;;;23.38;42.11;97639.72;5124448;27;40716;-83
2022/09/29 11:58:40;;;;;;;4.60;2.97;;;;;;;24.08;38.73;97665.34;5124751;27;41911;-84
2022/09/29 12:01:25;;;;;;;4.90;2.53;;;;;;;23.74;39.24;97658.25;5121839;27;41944;-84
2022/09/29 12:04:10;;;;;;;3.30;2.23;;;;;;;23.37;40.21;97654.25;5132309;27;40732;-83